sensor_id;sensor_type;location;lat;lon;timestamp;pressure;altitude;pressure_sealevel;temperature;humidity
64340;BME280;63709;53.258;-8.814;2023-03-19T00:01:56;101740.13;;;9.06;100.00
64340;BME280;63709;53.258;-8.814;2023-03-19T00:04:22;101749.97;;;9.04;100.00
64340;BME280;63709;53.258;-8.814;2023-03-19T00:06:51;101744.41;;;9.08;100.00
64340;BME280;63709;53.258;-8.814;2023-03-19T00:09:17;101764.94;;;9.06;100.00
64340;BME280;63709;53.258;-8.814;2023-03-19T00:11:43;101771.72;;;9.12;100.00
64340;BME280;63709;53.258;-8.814;2023-03-19T00:14:08;101789.31;;;8.99;100.00
64340;BME280;63709;53.258;-8.814;2023-03-19T00:16:34;101780.06;;;9.06;100.00
64340;BME280;63709;53.258;-8.814;2023-03-19T00:19:01;101773.41;;;8.97;100.00
64340;BME280;63709;53.258;-8.814;2023-03-19T00:21:28;101781.66;;;8.92;100.00
64340;BME280;63709;53.258;-8.814;2023-03-19T00:23:53;101779.63;;;8.80;100.00
64340;BME280;63709;53.258;-8.814;2023-03-19T00:26:22;101786.50;;;8.84;100.00
64340;BME280;63709;53.258;-8.814;2023-03-19T00:28:48;101792.09;;;8.80;100.00
64340;BME280;63709;53.258;-8.814;2023-03-19T00:31:15;101806.75;;;9.04;100.00
64340;BME280;63709;53.258;-8.814;2023-03-19T00:33:43;101808.28;;;8.92;100.00
64340;BME280;63709;53.258;-8.814;2023-03-19T00:36:08;101810.41;;;8.68;100.00
64340;BME280;63709;53.258;-8.814;2023-03-19T00:38:37;101804.13;;;8.69;100.00
64340;BME280;63709;53.258;-8.814;2023-03-19T00:41:03;101786.06;;;8.59;100.00
64340;BME280;63709;53.258;-8.814;2023-03-19T00:43:30;101779.56;;;8.47;100.00
64340;BME280;63709;53.258;-8.814;2023-03-19T00:45:56;101774.81;;;8.54;100.00
64340;BME280;63709;53.258;-8.814;2023-03-19T00:48:22;101770.34;;;8.54;100.00
64340;BME280;63709;53.258;-8.814;2023-03-19T00:50:49;101771.81;;;8.60;100.00
64340;BME280;63709;53.258;-8.814;2023-03-19T00:53:16;101764.88;;;8.57;100.00
64340;BME280;63709;53.258;-8.814;2023-03-19T00:55:47;101750.84;;;8.54;100.00
64340;BME280;63709;53.258;-8.814;2023-03-19T00:58:14;101740.97;;;8.56;100.00
64340;BME280;63709;53.258;-8.814;2023-03-19T01:00:39;101749.06;;;8.54;100.00
64340;BME280;63709;53.258;-8.814;2023-03-19T01:03:05;101750.91;;;8.69;100.00
64340;BME280;63709;53.258;-8.814;2023-03-19T01:05:35;101763.28;;;8.70;100.00
64340;BME280;63709;53.258;-8.814;2023-03-19T01:08:02;101753.56;;;8.69;100.00
64340;BME280;63709;53.258;-8.814;2023-03-19T01:10:28;101751.88;;;8.68;100.00
64340;BME280;63709;53.258;-8.814;2023-03-19T01:12:55;101748.34;;;8.68;100.00
64340;BME280;63709;53.258;-8.814;2023-03-19T01:15:21;101752.41;;;8.75;100.00
64340;BME280;63709;53.258;-8.814;2023-03-19T01:17:46;101746.78;;;8.46;100.00
64340;BME280;63709;53.258;-8.814;2023-03-19T01:20:12;101747.84;;;8.60;100.00
64340;BME280;63709;53.258;-8.814;2023-03-19T01:22:39;101746.00;;;8.62;100.00
64340;BME280;63709;53.258;-8.814;2023-03-19T01:25:08;101748.81;;;8.59;100.00
64340;BME280;63709;53.258;-8.814;2023-03-19T01:27:34;101760.78;;;8.50;100.00
64340;BME280;63709;53.258;-8.814;2023-03-19T01:30:00;101761.00;;;8.63;100.00
64340;BME280;63709;53.258;-8.814;2023-03-19T01:32:26;101764.19;;;8.35;100.00
64340;BME280;63709;53.258;-8.814;2023-03-19T01:34:51;101766.66;;;8.39;100.00
64340;BME280;63709;53.258;-8.814;2023-03-19T01:37:17;101779.84;;;8.23;100.00
64340;BME280;63709;53.258;-8.814;2023-03-19T01:39:43;101779.09;;;8.39;100.00
64340;BME280;63709;53.258;-8.814;2023-03-19T01:42:09;101791.66;;;8.35;100.00
64340;BME280;63709;53.258;-8.814;2023-03-19T01:44:35;101791.00;;;8.30;100.00
64340;BME280;63709;53.258;-8.814;2023-03-19T01:47:04;101790.25;;;8.28;100.00
64340;BME280;63709;53.258;-8.814;2023-03-19T01:49:32;101781.00;;;8.18;100.00
64340;BME280;63709;53.258;-8.814;2023-03-19T01:51:57;101779.44;;;8.31;100.00
64340;BME280;63709;53.258;-8.814;2023-03-19T01:54:24;101780.38;;;8.30;100.00
64340;BME280;63709;53.258;-8.814;2023-03-19T01:56:51;101778.50;;;8.32;100.00
64340;BME280;63709;53.258;-8.814;2023-03-19T01:59:27;101781.66;;;8.40;100.00
64340;BME280;63709;53.258;-8.814;2023-03-19T02:01:58;101782.13;;;8.48;100.00
64340;BME280;63709;53.258;-8.814;2023-03-19T02:04:25;101783.09;;;8.47;100.00
64340;BME280;63709;53.258;-8.814;2023-03-19T02:06:53;101776.06;;;8.46;100.00
64340;BME280;63709;53.258;-8.814;2023-03-19T02:09:21;101774.41;;;8.44;100.00
64340;BME280;63709;53.258;-8.814;2023-03-19T02:11:48;101769.34;;;8.57;100.00
64340;BME280;63709;53.258;-8.814;2023-03-19T02:14:14;101761.97;;;8.62;100.00
64340;BME280;63709;53.258;-8.814;2023-03-19T02:16:40;101757.94;;;8.70;100.00
64340;BME280;63709;53.258;-8.814;2023-03-19T02:19:06;101770.16;;;8.75;100.00
64340;BME280;63709;53.258;-8.814;2023-03-19T02:21:33;101776.97;;;8.63;100.00
64340;BME280;63709;53.258;-8.814;2023-03-19T02:24:01;101789.44;;;8.62;100.00
64340;BME280;63709;53.258;-8.814;2023-03-19T02:26:27;101794.50;;;8.67;100.00
64340;BME280;63709;53.258;-8.814;2023-03-19T02:28:54;101777.38;;;8.72;100.00
64340;BME280;63709;53.258;-8.814;2023-03-19T02:31:21;101778.53;;;8.67;100.00
64340;BME280;63709;53.258;-8.814;2023-03-19T02:33:56;101789.03;;;8.70;100.00
64340;BME280;63709;53.258;-8.814;2023-03-19T02:38:54;101786.53;;;8.67;100.00
64340;BME280;63709;53.258;-8.814;2023-03-19T02:41:22;101776.44;;;8.73;100.00
64340;BME280;63709;53.258;-8.814;2023-03-19T02:43:48;101782.78;;;8.54;100.00
64340;BME280;63709;53.258;-8.814;2023-03-19T02:46:15;101782.44;;;8.60;100.00
64340;BME280;63709;53.258;-8.814;2023-03-19T02:48:40;101779.63;;;8.63;100.00
64340;BME280;63709;53.258;-8.814;2023-03-19T02:51:07;101780.28;;;8.68;100.00
64340;BME280;63709;53.258;-8.814;2023-03-19T02:53:33;101771.66;;;8.63;100.00
64340;BME280;63709;53.258;-8.814;2023-03-19T02:55:59;101768.69;;;8.69;100.00
64340;BME280;63709;53.258;-8.814;2023-03-19T02:58:25;101767.84;;;8.68;100.00
64340;BME280;63709;53.258;-8.814;2023-03-19T03:00:50;101762.56;;;8.67;100.00
64340;BME280;63709;53.258;-8.814;2023-03-19T03:03:16;101768.38;;;8.75;100.00
64340;BME280;63709;53.258;-8.814;2023-03-19T03:05:42;101763.38;;;8.69;100.00
64340;BME280;63709;53.258;-8.814;2023-03-19T03:08:07;101773.31;;;8.83;100.00
64340;BME280;63709;53.258;-8.814;2023-03-19T03:10:34;101774.91;;;8.85;100.00
64340;BME280;63709;53.258;-8.814;2023-03-19T03:13:00;101761.00;;;8.63;100.00
64340;BME280;63709;53.258;-8.814;2023-03-19T03:15:26;101763.44;;;8.67;100.00
64340;BME280;63709;53.258;-8.814;2023-03-19T03:17:52;101765.31;;;8.65;100.00
64340;BME280;63709;53.258;-8.814;2023-03-19T03:20:19;101765.16;;;8.68;100.00
64340;BME280;63709;53.258;-8.814;2023-03-19T03:22:45;101769.13;;;8.94;100.00
64340;BME280;63709;53.258;-8.814;2023-03-19T03:25:11;101753.41;;;8.72;100.00
64340;BME280;63709;53.258;-8.814;2023-03-19T03:27:39;101752.41;;;8.75;100.00
64340;BME280;63709;53.258;-8.814;2023-03-19T03:30:05;101742.06;;;8.86;100.00
64340;BME280;63709;53.258;-8.814;2023-03-19T03:32:34;101749.38;;;8.99;100.00
64340;BME280;63709;53.258;-8.814;2023-03-19T03:34:59;101751.03;;;9.01;100.00
64340;BME280;63709;53.258;-8.814;2023-03-19T03:37:27;101759.59;;;8.90;100.00
64340;BME280;63709;53.258;-8.814;2023-03-19T03:39:54;101744.09;;;8.64;100.00
64340;BME280;63709;53.258;-8.814;2023-03-19T03:42:20;101746.38;;;8.54;100.00
64340;BME280;63709;53.258;-8.814;2023-03-19T03:44:46;101749.59;;;8.43;100.00
64340;BME280;63709;53.258;-8.814;2023-03-19T03:47:12;101748.81;;;8.41;100.00
64340;BME280;63709;53.258;-8.814;2023-03-19T03:49:38;101745.72;;;8.32;100.00
64340;BME280;63709;53.258;-8.814;2023-03-19T03:52:04;101744.78;;;8.33;100.00
64340;BME280;63709;53.258;-8.814;2023-03-19T03:54:30;101740.13;;;8.38;100.00
64340;BME280;63709;53.258;-8.814;2023-03-19T03:56:55;101743.41;;;8.43;100.00
64340;BME280;63709;53.258;-8.814;2023-03-19T03:59:22;101740.06;;;8.39;100.00
64340;BME280;63709;53.258;-8.814;2023-03-19T04:01:48;101737.22;;;8.60;100.00
64340;BME280;63709;53.258;-8.814;2023-03-19T04:04:14;101733.94;;;8.55;100.00
64340;BME280;63709;53.258;-8.814;2023-03-19T04:06:39;101729.78;;;8.49;100.00
64340;BME280;63709;53.258;-8.814;2023-03-19T04:09:04;101724.56;;;8.47;100.00
64340;BME280;63709;53.258;-8.814;2023-03-19T04:11:32;101718.69;;;8.41;100.00
64340;BME280;63709;53.258;-8.814;2023-03-19T04:13:57;101720.13;;;8.29;100.00
64340;BME280;63709;53.258;-8.814;2023-03-19T04:16:23;101716.72;;;8.44;100.00
64340;BME280;63709;53.258;-8.814;2023-03-19T04:18:49;101699.59;;;8.50;100.00
64340;BME280;63709;53.258;-8.814;2023-03-19T04:21:15;101702.16;;;8.52;100.00
64340;BME280;63709;53.258;-8.814;2023-03-19T04:23:42;101694.16;;;8.34;100.00
64340;BME280;63709;53.258;-8.814;2023-03-19T04:26:09;101695.09;;;8.33;100.00
64340;BME280;63709;53.258;-8.814;2023-03-19T04:28:34;101697.06;;;8.30;100.00
64340;BME280;63709;53.258;-8.814;2023-03-19T04:31:03;101712.56;;;8.21;100.00
64340;BME280;63709;53.258;-8.814;2023-03-19T04:33:29;101701.38;;;8.15;100.00
64340;BME280;63709;53.258;-8.814;2023-03-19T04:35:55;101707.16;;;8.06;100.00
64340;BME280;63709;53.258;-8.814;2023-03-19T04:38:21;101712.72;;;8.01;100.00
64340;BME280;63709;53.258;-8.814;2023-03-19T04:40:47;101723.34;;;8.18;100.00
64340;BME280;63709;53.258;-8.814;2023-03-19T04:43:13;101712.94;;;8.14;100.00
64340;BME280;63709;53.258;-8.814;2023-03-19T04:45:38;101707.63;;;8.14;100.00
64340;BME280;63709;53.258;-8.814;2023-03-19T04:48:05;101714.66;;;8.15;100.00
64340;BME280;63709;53.258;-8.814;2023-03-19T04:50:31;101722.78;;;8.12;100.00
64340;BME280;63709;53.258;-8.814;2023-03-19T04:52:56;101728.75;;;8.17;100.00
64340;BME280;63709;53.258;-8.814;2023-03-19T04:55:22;101728.66;;;8.18;100.00
64340;BME280;63709;53.258;-8.814;2023-03-19T04:57:47;101724.03;;;8.22;100.00
64340;BME280;63709;53.258;-8.814;2023-03-19T05:00:13;101735.38;;;8.08;100.00
64340;BME280;63709;53.258;-8.814;2023-03-19T05:02:41;101728.03;;;8.13;100.00
64340;BME280;63709;53.258;-8.814;2023-03-19T05:05:07;101733.13;;;8.18;100.00
64340;BME280;63709;53.258;-8.814;2023-03-19T05:07:33;101727.19;;;8.30;100.00
64340;BME280;63709;53.258;-8.814;2023-03-19T05:09:59;101736.44;;;8.40;100.00
64340;BME280;63709;53.258;-8.814;2023-03-19T05:12:25;101737.50;;;8.36;100.00
64340;BME280;63709;53.258;-8.814;2023-03-19T05:14:51;101727.59;;;8.40;100.00
64340;BME280;63709;53.258;-8.814;2023-03-19T05:17:17;101727.41;;;8.25;100.00
64340;BME280;63709;53.258;-8.814;2023-03-19T05:19:43;101736.41;;;8.23;100.00
64340;BME280;63709;53.258;-8.814;2023-03-19T05:22:08;101731.28;;;8.37;100.00
64340;BME280;63709;53.258;-8.814;2023-03-19T05:24:34;101735.63;;;8.21;100.00
64340;BME280;63709;53.258;-8.814;2023-03-19T05:27:00;101721.53;;;8.19;100.00
64340;BME280;63709;53.258;-8.814;2023-03-19T05:29:26;101732.19;;;8.19;100.00
64340;BME280;63709;53.258;-8.814;2023-03-19T05:31:52;101741.41;;;8.29;100.00
64340;BME280;63709;53.258;-8.814;2023-03-19T05:34:17;101750.41;;;8.45;100.00
64340;BME280;63709;53.258;-8.814;2023-03-19T05:36:43;101744.69;;;8.34;100.00
64340;BME280;63709;53.258;-8.814;2023-03-19T05:39:08;101734.25;;;8.31;100.00
64340;BME280;63709;53.258;-8.814;2023-03-19T05:41:35;101734.84;;;8.36;100.00
64340;BME280;63709;53.258;-8.814;2023-03-19T05:44:02;101733.16;;;8.53;100.00
64340;BME280;63709;53.258;-8.814;2023-03-19T05:46:28;101733.94;;;8.55;100.00
64340;BME280;63709;53.258;-8.814;2023-03-19T05:48:59;101738.47;;;8.35;100.00
64340;BME280;63709;53.258;-8.814;2023-03-19T05:51:26;101722.75;;;8.31;100.00
64340;BME280;63709;53.258;-8.814;2023-03-19T05:53:51;101723.81;;;8.27;100.00
64340;BME280;63709;53.258;-8.814;2023-03-19T05:56:18;101738.16;;;8.41;100.00
64340;BME280;63709;53.258;-8.814;2023-03-19T05:58:44;101742.72;;;8.57;100.00
64340;BME280;63709;53.258;-8.814;2023-03-19T06:01:10;101735.91;;;8.51;100.00
64340;BME280;63709;53.258;-8.814;2023-03-19T06:03:36;101724.22;;;8.36;100.00
64340;BME280;63709;53.258;-8.814;2023-03-19T06:06:01;101723.28;;;8.20;100.00
64340;BME280;63709;53.258;-8.814;2023-03-19T06:08:26;101718.72;;;8.22;100.00
64340;BME280;63709;53.258;-8.814;2023-03-19T06:10:52;101722.56;;;8.16;100.00
64340;BME280;63709;53.258;-8.814;2023-03-19T06:13:18;101729.59;;;8.17;100.00
64340;BME280;63709;53.258;-8.814;2023-03-19T06:15:46;101723.44;;;8.17;100.00
64340;BME280;63709;53.258;-8.814;2023-03-19T06:18:11;101733.06;;;8.19;100.00
64340;BME280;63709;53.258;-8.814;2023-03-19T06:20:37;101728.19;;;8.10;100.00
64340;BME280;63709;53.258;-8.814;2023-03-19T06:23:02;101734.63;;;8.23;100.00
64340;BME280;63709;53.258;-8.814;2023-03-19T06:25:29;101728.41;;;8.23;100.00
64340;BME280;63709;53.258;-8.814;2023-03-19T06:27:55;101736.50;;;8.21;100.00
64340;BME280;63709;53.258;-8.814;2023-03-19T06:30:20;101741.81;;;8.21;100.00
64340;BME280;63709;53.258;-8.814;2023-03-19T06:32:46;101737.19;;;8.25;100.00
64340;BME280;63709;53.258;-8.814;2023-03-19T06:35:12;101729.47;;;8.20;100.00
64340;BME280;63709;53.258;-8.814;2023-03-19T06:37:38;101726.25;;;8.31;100.00
64340;BME280;63709;53.258;-8.814;2023-03-19T06:40:05;101725.50;;;8.46;100.00
64340;BME280;63709;53.258;-8.814;2023-03-19T06:42:30;101723.84;;;8.61;100.00
64340;BME280;63709;53.258;-8.814;2023-03-19T06:44:57;101717.59;;;8.45;100.00
64340;BME280;63709;53.258;-8.814;2023-03-19T06:47:22;101722.44;;;8.54;100.00
64340;BME280;63709;53.258;-8.814;2023-03-19T06:49:48;101715.88;;;8.61;100.00
64340;BME280;63709;53.258;-8.814;2023-03-19T06:52:13;101719.06;;;8.51;100.00
64340;BME280;63709;53.258;-8.814;2023-03-19T06:54:39;101719.22;;;8.47;100.00
64340;BME280;63709;53.258;-8.814;2023-03-19T06:57:04;101713.81;;;8.49;100.00
64340;BME280;63709;53.258;-8.814;2023-03-19T06:59:32;101720.03;;;8.50;100.00
64340;BME280;63709;53.258;-8.814;2023-03-19T07:01:57;101718.78;;;8.57;100.00
64340;BME280;63709;53.258;-8.814;2023-03-19T07:04:22;101728.31;;;8.61;100.00
64340;BME280;63709;53.258;-8.814;2023-03-19T07:06:48;101721.03;;;8.64;100.00
64340;BME280;63709;53.258;-8.814;2023-03-19T07:09:13;101734.25;;;8.66;100.00
64340;BME280;63709;53.258;-8.814;2023-03-19T07:11:39;101731.34;;;8.70;100.00
64340;BME280;63709;53.258;-8.814;2023-03-19T07:14:04;101729.88;;;8.65;100.00
64340;BME280;63709;53.258;-8.814;2023-03-19T07:16:29;101725.72;;;8.92;100.00
64340;BME280;63709;53.258;-8.814;2023-03-19T07:18:55;101732.13;;;9.06;100.00
64340;BME280;63709;53.258;-8.814;2023-03-19T07:21:21;101726.38;;;9.13;100.00
64340;BME280;63709;53.258;-8.814;2023-03-19T07:23:47;101722.44;;;9.20;100.00
64340;BME280;63709;53.258;-8.814;2023-03-19T07:26:16;101717.44;;;9.14;100.00
64340;BME280;63709;53.258;-8.814;2023-03-19T07:28:43;101719.69;;;9.22;100.00
64340;BME280;63709;53.258;-8.814;2023-03-19T07:31:08;101719.34;;;9.12;100.00
64340;BME280;63709;53.258;-8.814;2023-03-19T07:33:33;101728.88;;;9.16;100.00
64340;BME280;63709;53.258;-8.814;2023-03-19T07:35:59;101728.31;;;9.27;100.00
64340;BME280;63709;53.258;-8.814;2023-03-19T07:38:25;101730.88;;;9.29;100.00
64340;BME280;63709;53.258;-8.814;2023-03-19T07:40:51;101731.13;;;9.24;100.00
64340;BME280;63709;53.258;-8.814;2023-03-19T07:43:18;101734.66;;;9.25;100.00
64340;BME280;63709;53.258;-8.814;2023-03-19T07:45:43;101729.59;;;9.20;100.00
64340;BME280;63709;53.258;-8.814;2023-03-19T07:48:10;101736.03;;;9.32;100.00
64340;BME280;63709;53.258;-8.814;2023-03-19T07:50:35;101730.34;;;9.22;100.00
64340;BME280;63709;53.258;-8.814;2023-03-19T07:53:02;101733.13;;;9.36;100.00
64340;BME280;63709;53.258;-8.814;2023-03-19T07:55:29;101745.75;;;9.33;100.00
64340;BME280;63709;53.258;-8.814;2023-03-19T07:57:54;101741.00;;;9.38;100.00
64340;BME280;63709;53.258;-8.814;2023-03-19T08:00:21;101735.69;;;9.38;100.00
64340;BME280;63709;53.258;-8.814;2023-03-19T08:02:48;101728.47;;;9.40;100.00
64340;BME280;63709;53.258;-8.814;2023-03-19T08:05:13;101736.38;;;9.41;100.00
64340;BME280;63709;53.258;-8.814;2023-03-19T08:07:40;101738.19;;;9.41;100.00
64340;BME280;63709;53.258;-8.814;2023-03-19T08:10:06;101732.44;;;9.49;100.00
64340;BME280;63709;53.258;-8.814;2023-03-19T08:12:32;101725.13;;;9.36;100.00
64340;BME280;63709;53.258;-8.814;2023-03-19T08:14:58;101732.78;;;9.42;100.00
64340;BME280;63709;53.258;-8.814;2023-03-19T08:17:24;101733.81;;;9.40;100.00
64340;BME280;63709;53.258;-8.814;2023-03-19T08:19:57;101737.00;;;9.31;100.00
64340;BME280;63709;53.258;-8.814;2023-03-19T08:22:23;101738.00;;;9.28;100.00
64340;BME280;63709;53.258;-8.814;2023-03-19T08:24:48;101736.38;;;9.41;100.00
64340;BME280;63709;53.258;-8.814;2023-03-19T08:27:14;101736.78;;;9.34;100.00
64340;BME280;63709;53.258;-8.814;2023-03-19T08:29:48;101735.69;;;9.38;100.00
64340;BME280;63709;53.258;-8.814;2023-03-19T08:32:13;101724.78;;;9.42;100.00
64340;BME280;63709;53.258;-8.814;2023-03-19T08:34:39;101734.59;;;9.42;100.00
64340;BME280;63709;53.258;-8.814;2023-03-19T08:37:04;101731.66;;;9.47;100.00
64340;BME280;63709;53.258;-8.814;2023-03-19T08:39:30;101726.41;;;9.45;100.00
64340;BME280;63709;53.258;-8.814;2023-03-19T08:41:56;101726.41;;;9.45;100.00
64340;BME280;63709;53.258;-8.814;2023-03-19T08:44:21;101737.00;;;9.47;100.00
64340;BME280;63709;53.258;-8.814;2023-03-19T08:46:48;101721.25;;;9.58;100.00
64340;BME280;63709;53.258;-8.814;2023-03-19T08:49:14;101717.31;;;9.65;100.00
64340;BME280;63709;53.258;-8.814;2023-03-19T08:51:39;101718.06;;;9.67;100.00
64340;BME280;63709;53.258;-8.814;2023-03-19T08:54:05;101716.78;;;9.74;100.00
64340;BME280;63709;53.258;-8.814;2023-03-19T08:56:32;101716.25;;;9.67;100.00
64340;BME280;63709;53.258;-8.814;2023-03-19T08:59:00;101708.09;;;9.70;100.00
64340;BME280;63709;53.258;-8.814;2023-03-19T09:01:27;101719.81;;;9.68;100.00
64340;BME280;63709;53.258;-8.814;2023-03-19T09:03:52;101717.22;;;9.66;100.00
64340;BME280;63709;53.258;-8.814;2023-03-19T09:06:18;101705.44;;;9.86;100.00
64340;BME280;63709;53.258;-8.814;2023-03-19T09:08:43;101705.56;;;9.99;100.00
64340;BME280;63709;53.258;-8.814;2023-03-19T09:11:09;101705.38;;;10.02;100.00
64340;BME280;63709;53.258;-8.814;2023-03-19T09:13:36;101707.00;;;10.05;100.00
64340;BME280;63709;53.258;-8.814;2023-03-19T09:16:02;101705.91;;;10.09;100.00
64340;BME280;63709;53.258;-8.814;2023-03-19T09:18:28;101705.63;;;10.13;100.00
64340;BME280;63709;53.258;-8.814;2023-03-19T09:20:53;101702.91;;;10.29;100.00
64340;BME280;63709;53.258;-8.814;2023-03-19T09:23:20;101690.16;;;10.34;100.00
64340;BME280;63709;53.258;-8.814;2023-03-19T09:25:46;101688.25;;;10.36;100.00
64340;BME280;63709;53.258;-8.814;2023-03-19T09:28:12;101688.72;;;10.29;100.00
64340;BME280;63709;53.258;-8.814;2023-03-19T09:30:39;101682.38;;;10.46;100.00
64340;BME280;63709;53.258;-8.814;2023-03-19T09:33:04;101682.78;;;10.54;100.00
64340;BME280;63709;53.258;-8.814;2023-03-19T09:35:30;101683.31;;;10.45;100.00
64340;BME280;63709;53.258;-8.814;2023-03-19T09:38:00;101693.84;;;10.62;100.00
64340;BME280;63709;53.258;-8.814;2023-03-19T09:40:27;101683.16;;;10.62;100.00
64340;BME280;63709;53.258;-8.814;2023-03-19T09:45:38;101673.16;;;10.80;100.00
64340;BME280;63709;53.258;-8.814;2023-03-19T09:48:11;101676.50;;;10.83;100.00
64340;BME280;63709;53.258;-8.814;2023-03-19T09:50:39;101666.75;;;10.97;100.00
64340;BME280;63709;53.258;-8.814;2023-03-19T09:58:04;101679.22;;;11.10;100.00
64340;BME280;63709;53.258;-8.814;2023-03-19T10:00:35;101682.09;;;11.07;100.00
64340;BME280;63709;53.258;-8.814;2023-03-19T10:10:56;101666.44;;;11.15;100.00
64340;BME280;63709;53.258;-8.814;2023-03-19T10:13:45;101677.22;;;11.14;100.00
64340;BME280;63709;53.258;-8.814;2023-03-19T10:16:24;101673.50;;;11.17;100.00
64340;BME280;63709;53.258;-8.814;2023-03-19T10:18:51;101673.94;;;11.23;100.00
64340;BME280;63709;53.258;-8.814;2023-03-19T10:21:27;101669.03;;;11.17;100.00
64340;BME280;63709;53.258;-8.814;2023-03-19T10:26:32;101659.94;;;11.20;100.00
64340;BME280;63709;53.258;-8.814;2023-03-19T10:29:10;101661.19;;;11.14;100.00
64340;BME280;63709;53.258;-8.814;2023-03-19T10:34:30;101647.69;;;11.30;100.00
64340;BME280;63709;53.258;-8.814;2023-03-19T10:36:57;101643.22;;;11.30;100.00
64340;BME280;63709;53.258;-8.814;2023-03-19T10:39:25;101629.75;;;11.32;100.00
64340;BME280;63709;53.258;-8.814;2023-03-19T10:44:46;101642.00;;;11.22;100.00
64340;BME280;63709;53.258;-8.814;2023-03-19T10:47:15;101640.19;;;11.22;100.00
64340;BME280;63709;53.258;-8.814;2023-03-19T10:49:45;101636.09;;;11.17;100.00
64340;BME280;63709;53.258;-8.814;2023-03-19T10:54:45;101638.22;;;10.97;100.00
64340;BME280;63709;53.258;-8.814;2023-03-19T10:57:21;101638.13;;;10.99;100.00
64340;BME280;63709;53.258;-8.814;2023-03-19T10:59:47;101637.09;;;11.01;100.00
64340;BME280;63709;53.258;-8.814;2023-03-19T11:02:14;101630.84;;;11.01;100.00
64340;BME280;63709;53.258;-8.814;2023-03-19T11:04:43;101639.75;;;11.01;100.00
64340;BME280;63709;53.258;-8.814;2023-03-19T11:07:16;101641.09;;;10.94;100.00
64340;BME280;63709;53.258;-8.814;2023-03-19T11:12:19;101634.13;;;11.06;100.00
64340;BME280;63709;53.258;-8.814;2023-03-19T11:15:14;101641.16;;;11.07;100.00
64340;BME280;63709;53.258;-8.814;2023-03-19T11:17:36;101638.31;;;11.10;100.00
64340;BME280;63709;53.258;-8.814;2023-03-19T11:20:26;101640.38;;;11.05;100.00
64340;BME280;63709;53.258;-8.814;2023-03-19T11:22:48;101632.19;;;10.94;100.00
64340;BME280;63709;53.258;-8.814;2023-03-19T11:28:02;101627.56;;;10.83;100.00
64340;BME280;63709;53.258;-8.814;2023-03-19T11:31:14;101629.34;;;10.97;100.00
64340;BME280;63709;53.258;-8.814;2023-03-19T11:38:29;101617.72;;;10.98;100.00
64340;BME280;63709;53.258;-8.814;2023-03-19T11:52:01;101597.91;;;10.73;100.00
64340;BME280;63709;53.258;-8.814;2023-03-19T11:54:31;101581.69;;;10.90;100.00
64340;BME280;63709;53.258;-8.814;2023-03-19T11:59:39;101587.59;;;10.81;100.00
64340;BME280;63709;53.258;-8.814;2023-03-19T12:07:36;101568.34;;;10.76;100.00
64340;BME280;63709;53.258;-8.814;2023-03-19T12:18:28;101550.72;;;10.59;100.00
64340;BME280;63709;53.258;-8.814;2023-03-19T12:21:21;101545.19;;;10.62;100.00
64340;BME280;63709;53.258;-8.814;2023-03-19T12:26:28;101535.16;;;10.66;100.00
64340;BME280;63709;53.258;-8.814;2023-03-19T12:34:25;101526.34;;;10.78;100.00
64340;BME280;63709;53.258;-8.814;2023-03-19T12:36:57;101525.69;;;10.75;100.00
64340;BME280;63709;53.258;-8.814;2023-03-19T12:39:32;101527.44;;;10.76;100.00
64340;BME280;63709;53.258;-8.814;2023-03-19T12:41:59;101524.97;;;10.73;100.00
64340;BME280;63709;53.258;-8.814;2023-03-19T12:46:57;101514.28;;;10.73;100.00
64340;BME280;63709;53.258;-8.814;2023-03-19T12:49:34;101506.16;;;10.74;100.00
64340;BME280;63709;53.258;-8.814;2023-03-19T12:54:41;101489.56;;;10.83;100.00
64340;BME280;63709;53.258;-8.814;2023-03-19T12:59:35;101482.09;;;10.88;100.00
64340;BME280;63709;53.258;-8.814;2023-03-19T13:02:08;101483.34;;;10.83;100.00
64340;BME280;63709;53.258;-8.814;2023-03-19T13:04:37;101470.94;;;10.82;100.00
64340;BME280;63709;53.258;-8.814;2023-03-19T13:07:14;101473.81;;;10.79;100.00
64340;BME280;63709;53.258;-8.814;2023-03-19T13:12:27;101450.94;;;11.02;100.00
64340;BME280;63709;53.258;-8.814;2023-03-19T13:14:57;101447.19;;;11.04;100.00
64340;BME280;63709;53.258;-8.814;2023-03-19T13:20:05;101435.78;;;11.02;100.00
64340;BME280;63709;53.258;-8.814;2023-03-19T13:22:33;101425.28;;;10.99;100.00
64340;BME280;63709;53.258;-8.814;2023-03-19T13:25:00;101421.03;;;11.09;100.00
64340;BME280;63709;53.258;-8.814;2023-03-19T13:27:28;101409.06;;;11.15;100.00
64340;BME280;63709;53.258;-8.814;2023-03-19T13:37:42;101387.41;;;11.32;100.00
64340;BME280;63709;53.258;-8.814;2023-03-19T13:40:34;101388.47;;;11.30;100.00
64340;BME280;63709;53.258;-8.814;2023-03-19T13:42:57;101389.09;;;11.33;100.00
64340;BME280;63709;53.258;-8.814;2023-03-19T13:45:41;101380.00;;;11.23;100.00
64340;BME280;63709;53.258;-8.814;2023-03-19T13:48:23;101371.88;;;11.37;100.00
64340;BME280;63709;53.258;-8.814;2023-03-19T13:51:01;101373.41;;;11.29;100.00
64340;BME280;63709;53.258;-8.814;2023-03-19T13:55:58;101358.53;;;11.37;100.00
64340;BME280;63709;53.258;-8.814;2023-03-19T13:58:25;101352.44;;;11.48;100.00
64340;BME280;63709;53.258;-8.814;2023-03-19T14:04:04;101351.03;;;11.55;100.00
64340;BME280;63709;53.258;-8.814;2023-03-19T14:06:43;101352.00;;;11.54;100.00
64340;BME280;63709;53.258;-8.814;2023-03-19T14:14:23;101336.50;;;11.72;100.00
64340;BME280;63709;53.258;-8.814;2023-03-19T14:16:50;101333.16;;;11.94;100.00
64340;BME280;63709;53.258;-8.814;2023-03-19T14:19:20;101334.84;;;11.95;100.00
64340;BME280;63709;53.258;-8.814;2023-03-19T14:26:53;101313.19;;;12.11;100.00
64340;BME280;63709;53.258;-8.814;2023-03-19T14:29:19;101302.69;;;12.08;100.00
64340;BME280;63709;53.258;-8.814;2023-03-19T14:31:50;101298.88;;;11.99;100.00